aviador You're here:

KTYS Decoded Metar

KNOXVILLE in TN, USA
Report Time2018-05-23 15:53:00
UTC Time2018-05-23 16:37:38
Flight Rules mvfr MVFR
WindCalm
Visibility9999 m
Phenomena:N/A
Clouds:Broken 026 Hf
Expected CloudBase > 2,400 ft AGL from Temp-Dew spread
Ceiling2,600 ft
Temp25°C (ISA +12)
Dew Point19°C (69% RH)
QNH1020 hPa
Density Alt2,434 ft
Elevation991 ft
Report Wrong Elevation
Raw Report
METAR KTYS 231553Z 00000KT 10SM BKN026 25/19 A3012 RMK AO2 SLP189 T02500194=

Extra information for KTYS:More info

Metar Taf Metar & Taf Last 4 Metars F.Rules Stats Wind Profile Meteogram Temp Stats Airport Information Weather charts Add Link Nearby VenuesMetar ALERT Operation Metar Decoded Social comments

AIRNAV info for KTYS